Terminal Aerodrome Forecast
Issued by NWS

Home | Current Version | Previous Version | Graphics & Text | Print | Product List | Glossary On
Versions: 1 2 3 4 5 6 7 8 9 10 11 12 13
000
FTUS43 KGRB 162026 AAA
TAFCWA
TAF AMD
KCWA 162026Z 1620/1718 34008KT P6SM BKN025
     FM162200 32006KT P6SM SCT025 BKN045
     FM170000 29005KT P6SM SCT120
     FM170900 26007KT P6SM BKN120
     FM171300 25009KT P6SM SCT120=

USA.gov is the U.S. government's official web portal to all federal, state and local government web resources and services.